sensor_id;sensor_type;location;lat;lon;timestamp;P1;P2;P0
74333;PMS5003;62753;40.394;-80.022;2024-01-16T00:00:24;15;12;
74333;PMS5003;62753;40.394;-80.022;2024-01-16T00:02:50;16;14;
74333;PMS5003;62753;40.394;-80.022;2024-01-16T00:05:16;16;14;
74333;PMS5003;62753;40.394;-80.022;2024-01-16T00:07:41;15;14;
74333;PMS5003;62753;40.394;-80.022;2024-01-16T00:10:07;16;15;
74333;PMS5003;62753;40.394;-80.022;2024-01-16T00:12:32;12;11;
74333;PMS5003;62753;40.394;-80.022;2024-01-16T00:15:00;12;12;
74333;PMS5003;62753;40.394;-80.022;2024-01-16T00:17:24;19;15;
74333;PMS5003;62753;40.394;-80.022;2024-01-16T00:19:49;14;12;
74333;PMS5003;62753;40.394;-80.022;2024-01-16T00:22:17;16;14;
74333;PMS5003;62753;40.394;-80.022;2024-01-16T00:24:40;22;15;
74333;PMS5003;62753;40.394;-80.022;2024-01-16T00:27:06;17;12;
74333;PMS5003;62753;40.394;-80.022;2024-01-16T00:29:31;15;12;
74333;PMS5003;62753;40.394;-80.022;2024-01-16T00:31:57;20;15;
74333;PMS5003;62753;40.394;-80.022;2024-01-16T00:34:23;19;13;
74333;PMS5003;62753;40.394;-80.022;2024-01-16T00:36:48;20;15;
74333;PMS5003;62753;40.394;-80.022;2024-01-16T00:39:14;12;11;
74333;PMS5003;62753;40.394;-80.022;2024-01-16T00:41:40;15;13;
74333;PMS5003;62753;40.394;-80.022;2024-01-16T00:44:05;17;13;
74333;PMS5003;62753;40.394;-80.022;2024-01-16T00:46:31;21;15;
74333;PMS5003;62753;40.394;-80.022;2024-01-16T00:48:57;20;12;
74333;PMS5003;62753;40.394;-80.022;2024-01-16T00:51:23;13;11;
74333;PMS5003;62753;40.394;-80.022;2024-01-16T00:53:49;12;11;
74333;PMS5003;62753;40.394;-80.022;2024-01-16T00:56:13;16;15;
74333;PMS5003;62753;40.394;-80.022;2024-01-16T00:58:40;15;12;
74333;PMS5003;62753;40.394;-80.022;2024-01-16T01:01:04;16;12;
74333;PMS5003;62753;40.394;-80.022;2024-01-16T01:03:31;10;10;
74333;PMS5003;62753;40.394;-80.022;2024-01-16T01:05:55;22;16;
74333;PMS5003;62753;40.394;-80.022;2024-01-16T01:08:21;20;13;
74333;PMS5003;62753;40.394;-80.022;2024-01-16T01:10:47;20;16;
74333;PMS5003;62753;40.394;-80.022;2024-01-16T01:13:11;19;16;
74333;PMS5003;62753;40.394;-80.022;2024-01-16T01:15:37;20;16;
74333;PMS5003;62753;40.394;-80.022;2024-01-16T01:18:04;16;15;
74333;PMS5003;62753;40.394;-80.022;2024-01-16T01:20:29;16;15;
74333;PMS5003;62753;40.394;-80.022;2024-01-16T01:22:53;20;19;
74333;PMS5003;62753;40.394;-80.022;2024-01-16T01:25:20;20;16;
74333;PMS5003;62753;40.394;-80.022;2024-01-16T01:27:46;16;15;
74333;PMS5003;62753;40.394;-80.022;2024-01-16T01:30:11;25;17;
74333;PMS5003;62753;40.394;-80.022;2024-01-16T01:32:36;22;17;
74333;PMS5003;62753;40.394;-80.022;2024-01-16T01:35:01;16;13;
74333;PMS5003;62753;40.394;-80.022;2024-01-16T01:37:29;21;17;
74333;PMS5003;62753;40.394;-80.022;2024-01-16T01:39:54;17;16;
74333;PMS5003;62753;40.394;-80.022;2024-01-16T01:42:18;15;15;
74333;PMS5003;62753;40.394;-80.022;2024-01-16T01:44:44;17;15;
74333;PMS5003;62753;40.394;-80.022;2024-01-16T01:47:09;17;15;
74333;PMS5003;62753;40.394;-80.022;2024-01-16T01:49:35;22;16;
74333;PMS5003;62753;40.394;-80.022;2024-01-16T01:52:02;16;14;
74333;PMS5003;62753;40.394;-80.022;2024-01-16T01:54:27;17;15;
74333;PMS5003;62753;40.394;-80.022;2024-01-16T01:56:52;13;13;
74333;PMS5003;62753;40.394;-80.022;2024-01-16T01:59:17;17;15;
74333;PMS5003;62753;40.394;-80.022;2024-01-16T02:01:43;23;16;
74333;PMS5003;62753;40.394;-80.022;2024-01-16T02:04:09;20;16;
74333;PMS5003;62753;40.394;-80.022;2024-01-16T02:06:35;16;13;
74333;PMS5003;62753;40.394;-80.022;2024-01-16T02:09:00;16;12;
74333;PMS5003;62753;40.394;-80.022;2024-01-16T02:11:29;21;13;
74333;PMS5003;62753;40.394;-80.022;2024-01-16T02:13:55;17;17;
74333;PMS5003;62753;40.394;-80.022;2024-01-16T02:16:19;20;17;
74333;PMS5003;62753;40.394;-80.022;2024-01-16T02:18:43;21;17;
74333;PMS5003;62753;40.394;-80.022;2024-01-16T02:21:09;16;14;
74333;PMS5003;62753;40.394;-80.022;2024-01-16T02:23:34;17;16;
74333;PMS5003;62753;40.394;-80.022;2024-01-16T02:26:00;21;13;
74333;PMS5003;62753;40.394;-80.022;2024-01-16T02:28:25;17;13;
74333;PMS5003;62753;40.394;-80.022;2024-01-16T02:30:50;18;18;
74333;PMS5003;62753;40.394;-80.022;2024-01-16T02:33:16;22;16;
74333;PMS5003;62753;40.394;-80.022;2024-01-16T02:35:43;20;18;
74333;PMS5003;62753;40.394;-80.022;2024-01-16T02:38:07;16;15;
74333;PMS5003;62753;40.394;-80.022;2024-01-16T02:40:35;22;16;
74333;PMS5003;62753;40.394;-80.022;2024-01-16T02:42:58;17;13;
74333;PMS5003;62753;40.394;-80.022;2024-01-16T02:45:24;20;17;
74333;PMS5003;62753;40.394;-80.022;2024-01-16T02:47:51;22;19;
74333;PMS5003;62753;40.394;-80.022;2024-01-16T02:50:15;21;17;
74333;PMS5003;62753;40.394;-80.022;2024-01-16T02:52:41;19;16;
74333;PMS5003;62753;40.394;-80.022;2024-01-16T02:55:08;16;15;
74333;PMS5003;62753;40.394;-80.022;2024-01-16T02:57:32;21;17;
74333;PMS5003;62753;40.394;-80.022;2024-01-16T02:59:57;21;19;
74333;PMS5003;62753;40.394;-80.022;2024-01-16T03:02:23;13;13;
74333;PMS5003;62753;40.394;-80.022;2024-01-16T03:04:48;21;18;
74333;PMS5003;62753;40.394;-80.022;2024-01-16T03:07:14;24;16;
74333;PMS5003;62753;40.394;-80.022;2024-01-16T03:09:39;18;16;
74333;PMS5003;62753;40.394;-80.022;2024-01-16T03:12:06;18;17;
74333;PMS5003;62753;40.394;-80.022;2024-01-16T03:14:30;21;18;
74333;PMS5003;62753;40.394;-80.022;2024-01-16T03:16:55;18;16;
74333;PMS5003;62753;40.394;-80.022;2024-01-16T03:19:21;20;17;
74333;PMS5003;62753;40.394;-80.022;2024-01-16T03:21:46;25;19;
74333;PMS5003;62753;40.394;-80.022;2024-01-16T03:24:12;19;16;
74333;PMS5003;62753;40.394;-80.022;2024-01-16T03:26:37;26;22;
74333;PMS5003;62753;40.394;-80.022;2024-01-16T03:29:03;18;16;
74333;PMS5003;62753;40.394;-80.022;2024-01-16T03:31:29;25;18;
74333;PMS5003;62753;40.394;-80.022;2024-01-16T03:33:54;22;17;
74333;PMS5003;62753;40.394;-80.022;2024-01-16T03:36:19;24;20;
74333;PMS5003;62753;40.394;-80.022;2024-01-16T03:38:45;26;22;
74333;PMS5003;62753;40.394;-80.022;2024-01-16T03:41:11;20;16;
74333;PMS5003;62753;40.394;-80.022;2024-01-16T03:43:36;24;19;
74333;PMS5003;62753;40.394;-80.022;2024-01-16T03:46:02;23;18;
74333;PMS5003;62753;40.394;-80.022;2024-01-16T03:48:27;29;21;
74333;PMS5003;62753;40.394;-80.022;2024-01-16T03:50:52;24;17;
74333;PMS5003;62753;40.394;-80.022;2024-01-16T03:53:18;26;16;
74333;PMS5003;62753;40.394;-80.022;2024-01-16T03:55:46;20;19;
74333;PMS5003;62753;40.394;-80.022;2024-01-16T03:58:12;25;21;
74333;PMS5003;62753;40.394;-80.022;2024-01-16T04:00:35;25;23;
74333;PMS5003;62753;40.394;-80.022;2024-01-16T04:03:02;19;18;
74333;PMS5003;62753;40.394;-80.022;2024-01-16T04:05:25;24;21;
74333;PMS5003;62753;40.394;-80.022;2024-01-16T04:07:51;26;21;
74333;PMS5003;62753;40.394;-80.022;2024-01-16T04:10:17;26;20;
74333;PMS5003;62753;40.394;-80.022;2024-01-16T04:12:43;31;22;
74333;PMS5003;62753;40.394;-80.022;2024-01-16T04:15:09;35;24;
74333;PMS5003;62753;40.394;-80.022;2024-01-16T04:17:33;22;19;
74333;PMS5003;62753;40.394;-80.022;2024-01-16T04:19:59;22;19;
74333;PMS5003;62753;40.394;-80.022;2024-01-16T04:22:24;22;15;
74333;PMS5003;62753;40.394;-80.022;2024-01-16T04:24:51;24;22;
74333;PMS5003;62753;40.394;-80.022;2024-01-16T04:27:16;30;22;
74333;PMS5003;62753;40.394;-80.022;2024-01-16T04:29:41;30;24;
74333;PMS5003;62753;40.394;-80.022;2024-01-16T04:32:06;26;20;
74333;PMS5003;62753;40.394;-80.022;2024-01-16T04:34:31;24;22;
74333;PMS5003;62753;40.394;-80.022;2024-01-16T04:36:58;22;18;
74333;PMS5003;62753;40.394;-80.022;2024-01-16T04:39:24;23;22;
74333;PMS5003;62753;40.394;-80.022;2024-01-16T04:41:49;22;19;
74333;PMS5003;62753;40.394;-80.022;2024-01-16T04:44:13;28;20;
74333;PMS5003;62753;40.394;-80.022;2024-01-16T04:46:39;23;19;
74333;PMS5003;62753;40.394;-80.022;2024-01-16T04:49:07;27;20;
74333;PMS5003;62753;40.394;-80.022;2024-01-16T04:51:30;22;19;
74333;PMS5003;62753;40.394;-80.022;2024-01-16T04:53:57;28;24;
74333;PMS5003;62753;40.394;-80.022;2024-01-16T04:56:21;26;24;
74333;PMS5003;62753;40.394;-80.022;2024-01-16T04:58:47;29;23;
74333;PMS5003;62753;40.394;-80.022;2024-01-16T05:01:13;27;21;
74333;PMS5003;62753;40.394;-80.022;2024-01-16T05:03:40;22;20;
74333;PMS5003;62753;40.394;-80.022;2024-01-16T05:06:04;22;18;
74333;PMS5003;62753;40.394;-80.022;2024-01-16T05:08:29;24;20;
74333;PMS5003;62753;40.394;-80.022;2024-01-16T05:10:54;22;18;
74333;PMS5003;62753;40.394;-80.022;2024-01-16T05:13:21;19;16;
74333;PMS5003;62753;40.394;-80.022;2024-01-16T05:15:48;23;21;
74333;PMS5003;62753;40.394;-80.022;2024-01-16T05:18:12;22;19;
74333;PMS5003;62753;40.394;-80.022;2024-01-16T05:20:36;19;15;
74333;PMS5003;62753;40.394;-80.022;2024-01-16T05:23:02;27;19;
74333;PMS5003;62753;40.394;-80.022;2024-01-16T05:25:28;20;18;
74333;PMS5003;62753;40.394;-80.022;2024-01-16T05:27:53;23;21;
74333;PMS5003;62753;40.394;-80.022;2024-01-16T05:30:19;30;22;
74333;PMS5003;62753;40.394;-80.022;2024-01-16T05:32:44;27;17;
74333;PMS5003;62753;40.394;-80.022;2024-01-16T05:35:10;22;18;
74333;PMS5003;62753;40.394;-80.022;2024-01-16T05:37:35;21;19;
74333;PMS5003;62753;40.394;-80.022;2024-01-16T05:40:01;30;18;
74333;PMS5003;62753;40.394;-80.022;2024-01-16T05:42:27;18;15;
74333;PMS5003;62753;40.394;-80.022;2024-01-16T05:44:52;19;18;
74333;PMS5003;62753;40.394;-80.022;2024-01-16T05:47:17;18;14;
74333;PMS5003;62753;40.394;-80.022;2024-01-16T05:49:43;20;15;
74333;PMS5003;62753;40.394;-80.022;2024-01-16T05:52:10;19;17;
74333;PMS5003;62753;40.394;-80.022;2024-01-16T05:54:34;20;15;
74333;PMS5003;62753;40.394;-80.022;2024-01-16T05:57:00;23;18;
74333;PMS5003;62753;40.394;-80.022;2024-01-16T05:59:25;18;17;
74333;PMS5003;62753;40.394;-80.022;2024-01-16T06:01:53;27;20;
74333;PMS5003;62753;40.394;-80.022;2024-01-16T06:04:17;18;17;
74333;PMS5003;62753;40.394;-80.022;2024-01-16T06:06:42;16;16;
74333;PMS5003;62753;40.394;-80.022;2024-01-16T06:09:09;24;18;
74333;PMS5003;62753;40.394;-80.022;2024-01-16T06:11:33;18;15;
74333;PMS5003;62753;40.394;-80.022;2024-01-16T06:13:59;19;18;
74333;PMS5003;62753;40.394;-80.022;2024-01-16T06:16:25;22;21;
74333;PMS5003;62753;40.394;-80.022;2024-01-16T06:18:52;21;18;
74333;PMS5003;62753;40.394;-80.022;2024-01-16T06:21:18;32;19;
74333;PMS5003;62753;40.394;-80.022;2024-01-16T06:23:41;27;19;
74333;PMS5003;62753;40.394;-80.022;2024-01-16T06:26:07;27;18;
74333;PMS5003;62753;40.394;-80.022;2024-01-16T06:28:33;20;18;
74333;PMS5003;62753;40.394;-80.022;2024-01-16T06:30:58;23;18;
74333;PMS5003;62753;40.394;-80.022;2024-01-16T06:33:23;23;16;
74333;PMS5003;62753;40.394;-80.022;2024-01-16T06:35:48;19;15;
74333;PMS5003;62753;40.394;-80.022;2024-01-16T06:38:14;19;17;
74333;PMS5003;62753;40.394;-80.022;2024-01-16T06:40:40;20;18;
74333;PMS5003;62753;40.394;-80.022;2024-01-16T06:43:05;22;20;
74333;PMS5003;62753;40.394;-80.022;2024-01-16T06:45:31;23;20;
74333;PMS5003;62753;40.394;-80.022;2024-01-16T06:47:57;27;19;
74333;PMS5003;62753;40.394;-80.022;2024-01-16T06:50:22;26;22;
74333;PMS5003;62753;40.394;-80.022;2024-01-16T06:52:48;23;21;
74333;PMS5003;62753;40.394;-80.022;2024-01-16T06:55:14;26;19;
74333;PMS5003;62753;40.394;-80.022;2024-01-16T06:57:37;23;22;
74333;PMS5003;62753;40.394;-80.022;2024-01-16T07:00:03;29;21;
74333;PMS5003;62753;40.394;-80.022;2024-01-16T07:02:30;29;19;
74333;PMS5003;62753;40.394;-80.022;2024-01-16T07:04:54;25;21;
74333;PMS5003;62753;40.394;-80.022;2024-01-16T07:07:22;26;21;
74333;PMS5003;62753;40.394;-80.022;2024-01-16T07:09:46;26;21;
74333;PMS5003;62753;40.394;-80.022;2024-01-16T07:12:10;25;21;
74333;PMS5003;62753;40.394;-80.022;2024-01-16T07:14:36;27;21;
74333;PMS5003;62753;40.394;-80.022;2024-01-16T07:17:01;25;19;
74333;PMS5003;62753;40.394;-80.022;2024-01-16T07:19:27;27;22;
74333;PMS5003;62753;40.394;-80.022;2024-01-16T07:21:53;31;27;
74333;PMS5003;62753;40.394;-80.022;2024-01-16T07:24:18;23;21;
74333;PMS5003;62753;40.394;-80.022;2024-01-16T07:26:43;27;25;
74333;PMS5003;62753;40.394;-80.022;2024-01-16T07:29:08;30;27;
74333;PMS5003;62753;40.394;-80.022;2024-01-16T07:31:34;33;25;
74333;PMS5003;62753;40.394;-80.022;2024-01-16T07:34:00;21;19;
74333;PMS5003;62753;40.394;-80.022;2024-01-16T07:36:26;30;27;
74333;PMS5003;62753;40.394;-80.022;2024-01-16T07:38:51;36;24;
74333;PMS5003;62753;40.394;-80.022;2024-01-16T07:41:16;30;27;
74333;PMS5003;62753;40.394;-80.022;2024-01-16T07:43:42;35;29;
74333;PMS5003;62753;40.394;-80.022;2024-01-16T07:46:08;35;27;
74333;PMS5003;62753;40.394;-80.022;2024-01-16T07:48:33;38;26;
74333;PMS5003;62753;40.394;-80.022;2024-01-16T07:50:59;30;22;
74333;PMS5003;62753;40.394;-80.022;2024-01-16T07:53:25;26;22;
74333;PMS5003;62753;40.394;-80.022;2024-01-16T07:55:49;37;27;
74333;PMS5003;62753;40.394;-80.022;2024-01-16T07:58:17;34;26;
74333;PMS5003;62753;40.394;-80.022;2024-01-16T08:00:42;35;26;
74333;PMS5003;62753;40.394;-80.022;2024-01-16T08:03:08;29;25;
74333;PMS5003;62753;40.394;-80.022;2024-01-16T08:05:33;31;27;
74333;PMS5003;62753;40.394;-80.022;2024-01-16T08:07:57;43;34;
74333;PMS5003;62753;40.394;-80.022;2024-01-16T08:10:23;31;25;
74333;PMS5003;62753;40.394;-80.022;2024-01-16T08:12:48;37;27;
74333;PMS5003;62753;40.394;-80.022;2024-01-16T08:15:14;35;29;
74333;PMS5003;62753;40.394;-80.022;2024-01-16T08:17:40;31;26;
74333;PMS5003;62753;40.394;-80.022;2024-01-16T08:20:08;30;25;
74333;PMS5003;62753;40.394;-80.022;2024-01-16T08:22:31;25;22;
74333;PMS5003;62753;40.394;-80.022;2024-01-16T08:24:58;26;21;
74333;PMS5003;62753;40.394;-80.022;2024-01-16T08:27:22;32;23;
74333;PMS5003;62753;40.394;-80.022;2024-01-16T08:29:47;29;23;
74333;PMS5003;62753;40.394;-80.022;2024-01-16T08:32:12;25;22;
74333;PMS5003;62753;40.394;-80.022;2024-01-16T08:34:39;30;25;
74333;PMS5003;62753;40.394;-80.022;2024-01-16T08:37:04;34;25;
74333;PMS5003;62753;40.394;-80.022;2024-01-16T08:39:30;31;26;
74333;PMS5003;62753;40.394;-80.022;2024-01-16T08:41:55;35;25;
74333;PMS5003;62753;40.394;-80.022;2024-01-16T08:44:20;29;24;
74333;PMS5003;62753;40.394;-80.022;2024-01-16T08:46:45;29;29;
74333;PMS5003;62753;40.394;-80.022;2024-01-16T08:49:11;29;23;
74333;PMS5003;62753;40.394;-80.022;2024-01-16T08:51:37;37;27;
74333;PMS5003;62753;40.394;-80.022;2024-01-16T08:54:04;37;29;
74333;PMS5003;62753;40.394;-80.022;2024-01-16T08:56:28;35;30;
74333;PMS5003;62753;40.394;-80.022;2024-01-16T08:58:54;31;25;
74333;PMS5003;62753;40.394;-80.022;2024-01-16T09:01:18;26;25;
74333;PMS5003;62753;40.394;-80.022;2024-01-16T09:03:44;28;22;
74333;PMS5003;62753;40.394;-80.022;2024-01-16T09:06:09;37;33;
74333;PMS5003;62753;40.394;-80.022;2024-01-16T09:08:36;38;26;
74333;PMS5003;62753;40.394;-80.022;2024-01-16T09:11:01;26;25;
74333;PMS5003;62753;40.394;-80.022;2024-01-16T09:13:26;32;26;
74333;PMS5003;62753;40.394;-80.022;2024-01-16T09:15:52;30;25;
74333;PMS5003;62753;40.394;-80.022;2024-01-16T09:18:17;37;26;
74333;PMS5003;62753;40.394;-80.022;2024-01-16T09:20:43;33;25;
74333;PMS5003;62753;40.394;-80.022;2024-01-16T09:23:11;41;29;
74333;PMS5003;62753;40.394;-80.022;2024-01-16T09:25:34;25;21;
74333;PMS5003;62753;40.394;-80.022;2024-01-16T09:27:59;36;25;
74333;PMS5003;62753;40.394;-80.022;2024-01-16T09:30:24;29;25;
74333;PMS5003;62753;40.394;-80.022;2024-01-16T09:32:51;29;25;
74333;PMS5003;62753;40.394;-80.022;2024-01-16T09:35:15;26;24;
74333;PMS5003;62753;40.394;-80.022;2024-01-16T09:37:40;30;24;
74333;PMS5003;62753;40.394;-80.022;2024-01-16T09:40:07;42;31;
74333;PMS5003;62753;40.394;-80.022;2024-01-16T09:42:31;40;28;
74333;PMS5003;62753;40.394;-80.022;2024-01-16T09:44:56;40;25;
74333;PMS5003;62753;40.394;-80.022;2024-01-16T09:47:22;45;29;
74333;PMS5003;62753;40.394;-80.022;2024-01-16T09:49:47;41;29;
74333;PMS5003;62753;40.394;-80.022;2024-01-16T09:52:13;39;29;
74333;PMS5003;62753;40.394;-80.022;2024-01-16T09:54:38;35;31;
74333;PMS5003;62753;40.394;-80.022;2024-01-16T09:57:04;35;27;
74333;PMS5003;62753;40.394;-80.022;2024-01-16T09:59:31;35;31;
74333;PMS5003;62753;40.394;-80.022;2024-01-16T10:01:56;37;33;
74333;PMS5003;62753;40.394;-80.022;2024-01-16T10:04:21;47;33;
74333;PMS5003;62753;40.394;-80.022;2024-01-16T10:06:47;38;28;
74333;PMS5003;62753;40.394;-80.022;2024-01-16T10:09:15;32;28;
74333;PMS5003;62753;40.394;-80.022;2024-01-16T10:11:38;43;28;
74333;PMS5003;62753;40.394;-80.022;2024-01-16T10:14:03;35;31;
74333;PMS5003;62753;40.394;-80.022;2024-01-16T10:18:55;36;29;
74333;PMS5003;62753;40.394;-80.022;2024-01-16T10:21:20;46;29;
74333;PMS5003;62753;40.394;-80.022;2024-01-16T10:23:45;33;32;
74333;PMS5003;62753;40.394;-80.022;2024-01-16T10:26:11;38;32;
74333;PMS5003;62753;40.394;-80.022;2024-01-16T10:28:36;48;38;
74333;PMS5003;62753;40.394;-80.022;2024-01-16T10:31:02;39;32;
74333;PMS5003;62753;40.394;-80.022;2024-01-16T10:33:27;45;31;
74333;PMS5003;62753;40.394;-80.022;2024-01-16T10:35:52;29;27;
74333;PMS5003;62753;40.394;-80.022;2024-01-16T10:38:21;45;32;
74333;PMS5003;62753;40.394;-80.022;2024-01-16T10:40:45;40;31;
74333;PMS5003;62753;40.394;-80.022;2024-01-16T10:43:10;39;33;
74333;PMS5003;62753;40.394;-80.022;2024-01-16T10:45:34;41;32;
74333;PMS5003;62753;40.394;-80.022;2024-01-16T10:48:01;41;32;
74333;PMS5003;62753;40.394;-80.022;2024-01-16T10:50:25;40;33;
74333;PMS5003;62753;40.394;-80.022;2024-01-16T10:52:50;52;36;
74333;PMS5003;62753;40.394;-80.022;2024-01-16T10:55:19;37;29;
74333;PMS5003;62753;40.394;-80.022;2024-01-16T10:57:41;34;29;
74333;PMS5003;62753;40.394;-80.022;2024-01-16T11:00:07;39;36;
74333;PMS5003;62753;40.394;-80.022;2024-01-16T11:02:33;39;32;
74333;PMS5003;62753;40.394;-80.022;2024-01-16T11:04:59;40;32;
74333;PMS5003;62753;40.394;-80.022;2024-01-16T11:07:23;32;27;
74333;PMS5003;62753;40.394;-80.022;2024-01-16T11:09:48;36;32;
74333;PMS5003;62753;40.394;-80.022;2024-01-16T11:12:14;44;32;
74333;PMS5003;62753;40.394;-80.022;2024-01-16T11:14:39;42;33;
74333;PMS5003;62753;40.394;-80.022;2024-01-16T11:17:04;36;32;
74333;PMS5003;62753;40.394;-80.022;2024-01-16T11:19:29;39;35;
74333;PMS5003;62753;40.394;-80.022;2024-01-16T11:21:55;39;32;
74333;PMS5003;62753;40.394;-80.022;2024-01-16T11:24:21;46;35;
74333;PMS5003;62753;40.394;-80.022;2024-01-16T11:26:46;41;36;
74333;PMS5003;62753;40.394;-80.022;2024-01-16T11:31:36;45;35;
74333;PMS5003;62753;40.394;-80.022;2024-01-16T11:34:02;45;31;
74333;PMS5003;62753;40.394;-80.022;2024-01-16T11:38:55;43;31;
74333;PMS5003;62753;40.394;-80.022;2024-01-16T11:43:43;43;29;
74333;PMS5003;62753;40.394;-80.022;2024-01-16T11:46:09;40;33;
74333;PMS5003;62753;40.394;-80.022;2024-01-16T11:48:35;35;28;
74333;PMS5003;62753;40.394;-80.022;2024-01-16T11:51:01;50;39;
74333;PMS5003;62753;40.394;-80.022;2024-01-16T11:53:32;39;28;
74333;PMS5003;62753;40.394;-80.022;2024-01-16T11:55:54;36;33;
74333;PMS5003;62753;40.394;-80.022;2024-01-16T11:58:24;42;31;
74333;PMS5003;62753;40.394;-80.022;2024-01-16T12:00:44;37;32;
74333;PMS5003;62753;40.394;-80.022;2024-01-16T12:03:09;46;34;
74333;PMS5003;62753;40.394;-80.022;2024-01-16T12:05:34;44;33;
74333;PMS5003;62753;40.394;-80.022;2024-01-16T12:07:59;47;35;
74333;PMS5003;62753;40.394;-80.022;2024-01-16T12:10:24;43;36;
74333;PMS5003;62753;40.394;-80.022;2024-01-16T12:12:51;40;32;
74333;PMS5003;62753;40.394;-80.022;2024-01-16T12:15:16;42;38;
74333;PMS5003;62753;40.394;-80.022;2024-01-16T12:17:45;38;34;
74333;PMS5003;62753;40.394;-80.022;2024-01-16T12:22:31;35;31;
74333;PMS5003;62753;40.394;-80.022;2024-01-16T12:25:00;50;33;
74333;PMS5003;62753;40.394;-80.022;2024-01-16T12:27:24;40;31;
74333;PMS5003;62753;40.394;-80.022;2024-01-16T12:29:48;42;32;
74333;PMS5003;62753;40.394;-80.022;2024-01-16T12:32:14;38;33;
74333;PMS5003;62753;40.394;-80.022;2024-01-16T12:34:46;46;35;
74333;PMS5003;62753;40.394;-80.022;2024-01-16T12:37:05;30;30;
74333;PMS5003;62753;40.394;-80.022;2024-01-16T12:39:31;48;37;
74333;PMS5003;62753;40.394;-80.022;2024-01-16T12:41:56;43;33;
74333;PMS5003;62753;40.394;-80.022;2024-01-16T12:44:26;37;33;
74333;PMS5003;62753;40.394;-80.022;2024-01-16T12:46:53;40;33;
74333;PMS5003;62753;40.394;-80.022;2024-01-16T12:49:12;35;33;
74333;PMS5003;62753;40.394;-80.022;2024-01-16T12:51:38;42;31;
74333;PMS5003;62753;40.394;-80.022;2024-01-16T12:54:11;38;32;
74333;PMS5003;62753;40.394;-80.022;2024-01-16T12:56:29;41;34;
74333;PMS5003;62753;40.394;-80.022;2024-01-16T12:58:54;52;34;
74333;PMS5003;62753;40.394;-80.022;2024-01-16T13:01:24;35;28;
74333;PMS5003;62753;40.394;-80.022;2024-01-16T13:03:45;40;32;
74333;PMS5003;62753;40.394;-80.022;2024-01-16T13:06:16;46;32;
74333;PMS5003;62753;40.394;-80.022;2024-01-16T13:08:36;34;30;
74333;PMS5003;62753;40.394;-80.022;2024-01-16T13:11:02;43;34;
74333;PMS5003;62753;40.394;-80.022;2024-01-16T13:13:27;33;30;
74333;PMS5003;62753;40.394;-80.022;2024-01-16T13:15:52;31;27;
74333;PMS5003;62753;40.394;-80.022;2024-01-16T13:18:18;34;25;
74333;PMS5003;62753;40.394;-80.022;2024-01-16T13:20:45;34;27;
74333;PMS5003;62753;40.394;-80.022;2024-01-16T13:23:09;37;29;
74333;PMS5003;62753;40.394;-80.022;2024-01-16T13:25:34;38;33;
74333;PMS5003;62753;40.394;-80.022;2024-01-16T13:27:59;30;26;
74333;PMS5003;62753;40.394;-80.022;2024-01-16T13:30:25;29;25;
74333;PMS5003;62753;40.394;-80.022;2024-01-16T13:32:50;29;25;
74333;PMS5003;62753;40.394;-80.022;2024-01-16T13:35:16;33;26;
74333;PMS5003;62753;40.394;-80.022;2024-01-16T13:37:42;29;29;
74333;PMS5003;62753;40.394;-80.022;2024-01-16T13:40:08;34;27;
74333;PMS5003;62753;40.394;-80.022;2024-01-16T13:42:33;40;30;
74333;PMS5003;62753;40.394;-80.022;2024-01-16T13:44:58;38;29;
74333;PMS5003;62753;40.394;-80.022;2024-01-16T13:47:23;37;27;
74333;PMS5003;62753;40.394;-80.022;2024-01-16T13:49:52;41;26;
74333;PMS5003;62753;40.394;-80.022;2024-01-16T13:52:14;31;29;
74333;PMS5003;62753;40.394;-80.022;2024-01-16T13:54:41;32;29;
74333;PMS5003;62753;40.394;-80.022;2024-01-16T13:57:07;36;27;
74333;PMS5003;62753;40.394;-80.022;2024-01-16T13:59:32;33;30;
74333;PMS5003;62753;40.394;-80.022;2024-01-16T14:01:59;37;33;
74333;PMS5003;62753;40.394;-80.022;2024-01-16T14:04:22;34;30;
74333;PMS5003;62753;40.394;-80.022;2024-01-16T14:06:51;37;31;
74333;PMS5003;62753;40.394;-80.022;2024-01-16T14:09:13;38;31;
74333;PMS5003;62753;40.394;-80.022;2024-01-16T14:11:38;31;24;
74333;PMS5003;62753;40.394;-80.022;2024-01-16T14:14:07;35;28;
74333;PMS5003;62753;40.394;-80.022;2024-01-16T14:16:29;24;21;
74333;PMS5003;62753;40.394;-80.022;2024-01-16T14:18:55;26;23;
74333;PMS5003;62753;40.394;-80.022;2024-01-16T14:21:21;26;23;
74333;PMS5003;62753;40.394;-80.022;2024-01-16T14:23:46;35;23;
74333;PMS5003;62753;40.394;-80.022;2024-01-16T14:26:11;26;23;
74333;PMS5003;62753;40.394;-80.022;2024-01-16T14:28:37;30;23;
74333;PMS5003;62753;40.394;-80.022;2024-01-16T14:31:03;26;22;
74333;PMS5003;62753;40.394;-80.022;2024-01-16T14:33:28;28;26;
74333;PMS5003;62753;40.394;-80.022;2024-01-16T14:35:54;36;30;
74333;PMS5003;62753;40.394;-80.022;2024-01-16T14:38:19;34;24;
74333;PMS5003;62753;40.394;-80.022;2024-01-16T14:40:45;23;21;
74333;PMS5003;62753;40.394;-80.022;2024-01-16T14:43:11;35;28;
74333;PMS5003;62753;40.394;-80.022;2024-01-16T14:45:38;30;28;
74333;PMS5003;62753;40.394;-80.022;2024-01-16T14:48:02;24;20;
74333;PMS5003;62753;40.394;-80.022;2024-01-16T14:50:29;27;24;
74333;PMS5003;62753;40.394;-80.022;2024-01-16T14:52:53;27;24;
74333;PMS5003;62753;40.394;-80.022;2024-01-16T14:55:18;36;27;
74333;PMS5003;62753;40.394;-80.022;2024-01-16T14:57:45;29;26;
74333;PMS5003;62753;40.394;-80.022;2024-01-16T15:00:10;31;23;
74333;PMS5003;62753;40.394;-80.022;2024-01-16T15:02:35;29;22;
74333;PMS5003;62753;40.394;-80.022;2024-01-16T15:05:00;29;20;
74333;PMS5003;62753;40.394;-80.022;2024-01-16T15:07:25;25;25;
74333;PMS5003;62753;40.394;-80.022;2024-01-16T15:09:51;34;25;
74333;PMS5003;62753;40.394;-80.022;2024-01-16T15:12:17;25;23;
74333;PMS5003;62753;40.394;-80.022;2024-01-16T15:14:42;36;23;
74333;PMS5003;62753;40.394;-80.022;2024-01-16T15:17:09;30;25;
74333;PMS5003;62753;40.394;-80.022;2024-01-16T15:19:33;33;27;
74333;PMS5003;62753;40.394;-80.022;2024-01-16T15:22:01;26;25;
74333;PMS5003;62753;40.394;-80.022;2024-01-16T15:24:25;26;26;
74333;PMS5003;62753;40.394;-80.022;2024-01-16T15:26:51;27;24;
74333;PMS5003;62753;40.394;-80.022;2024-01-16T15:29:16;37;28;
74333;PMS5003;62753;40.394;-80.022;2024-01-16T15:31:42;32;24;
74333;PMS5003;62753;40.394;-80.022;2024-01-16T15:34:09;34;30;
74333;PMS5003;62753;40.394;-80.022;2024-01-16T15:36:32;31;26;
74333;PMS5003;62753;40.394;-80.022;2024-01-16T15:38:57;34;24;
74333;PMS5003;62753;40.394;-80.022;2024-01-16T15:41:23;48;33;
74333;PMS5003;62753;40.394;-80.022;2024-01-16T15:43:48;29;26;
74333;PMS5003;62753;40.394;-80.022;2024-01-16T15:46:14;39;27;